createdAt,value
2022-08-23T00:01:18.576Z,2.80
2022-08-23T00:03:48.512Z,2.63
2022-08-23T00:06:15.909Z,3.03
2022-08-23T00:08:49.096Z,2.53
2022-08-23T00:11:28.417Z,2.70
2022-08-23T00:13:56.132Z,2.43
2022-08-23T00:16:23.338Z,2.97
2022-08-23T00:18:50.622Z,2.93
2022-08-23T00:21:17.921Z,2.93
2022-08-23T00:23:45.029Z,3.03
2022-08-23T00:26:12.155Z,2.97
2022-08-23T00:28:39.309Z,2.80
2022-08-23T00:31:06.441Z,3.03
2022-08-23T00:33:33.618Z,3.00
2022-08-23T00:36:00.762Z,2.63
2022-08-23T00:38:34.283Z,3.07
2022-08-23T00:41:02.799Z,3.07
2022-08-23T00:43:55.117Z,3.20
2022-08-23T00:46:46.232Z,2.90
2022-08-23T00:49:13.894Z,3.13
2022-08-23T00:51:57.577Z,3.20
2022-08-23T00:54:27.210Z,3.40
2022-08-23T00:56:55.502Z,3.10
2022-08-23T00:59:23.894Z,3.23
2022-08-23T01:01:51.663Z,3.20
2022-08-23T01:04:19.506Z,3.33
2022-08-23T01:06:46.600Z,3.17
2022-08-23T01:09:15.922Z,2.97
2022-08-23T01:11:45.860Z,3.30
2022-08-23T01:14:16.382Z,3.03
2022-08-23T01:16:45.468Z,3.20
2022-08-23T01:19:17.706Z,3.27
2022-08-23T01:21:48.216Z,3.40
2022-08-23T01:24:21.475Z,3.50
2022-08-23T01:27:03.999Z,3.70
2022-08-23T01:29:31.269Z,3.57
2022-08-23T01:31:58.442Z,3.60
2022-08-23T01:34:26.421Z,3.40
2022-08-23T01:36:54.227Z,3.60
2022-08-23T01:39:21.367Z,3.40
2022-08-23T01:41:48.495Z,3.80
2022-08-23T01:44:15.649Z,3.70
2022-08-23T01:46:44.533Z,3.97
2022-08-23T01:49:12.577Z,3.80
2022-08-23T01:51:39.833Z,3.97
2022-08-23T01:54:07.670Z,3.73
2022-08-23T01:56:38.990Z,3.93
2022-08-23T01:59:07.559Z,3.90
2022-08-23T02:01:34.730Z,3.90
2022-08-23T02:04:05.339Z,3.83
2022-08-23T02:06:33.397Z,4.10
2022-08-23T02:09:04.436Z,4.03
2022-08-23T02:11:33.739Z,4.10
2022-08-23T02:14:02.570Z,4.37
2022-08-23T02:16:31.571Z,4.30
2022-08-23T02:18:59.113Z,4.03
2022-08-23T02:21:26.419Z,3.83
2022-08-23T02:23:53.579Z,4.10
2022-08-23T02:26:20.950Z,4.27
2022-08-23T02:28:58.669Z,4.17
2022-08-23T02:31:26.562Z,4.17
2022-08-23T02:33:54.268Z,4.17
2022-08-23T02:36:23.050Z,4.60
2022-08-23T02:38:50.183Z,4.23
2022-08-23T02:41:17.567Z,4.50
2022-08-23T02:43:44.970Z,4.20
2022-08-23T02:46:12.108Z,4.30
2022-08-23T02:48:39.635Z,4.10
2022-08-23T02:51:08.405Z,4.50
2022-08-23T02:53:35.804Z,4.37
2022-08-23T02:56:03.048Z,4.70
2022-08-23T02:58:30.222Z,4.33
2022-08-23T03:00:58.004Z,4.53
2022-08-23T03:03:25.774Z,4.50
2022-08-23T03:05:53.628Z,4.37
2022-08-23T03:08:21.764Z,4.50
2022-08-23T03:10:49.736Z,4.60
2022-08-23T03:13:17.045Z,4.37
2022-08-23T03:15:45.093Z,4.43
2022-08-23T03:18:12.988Z,4.23
2022-08-23T03:20:41.717Z,4.70
2022-08-23T03:23:09.557Z,4.47
2022-08-23T03:25:37.893Z,4.83
2022-08-23T03:28:06.006Z,5.20
2022-08-23T03:30:33.750Z,4.60
2022-08-23T03:33:01.827Z,5.17
2022-08-23T03:35:29.495Z,5.33
2022-08-23T03:37:56.803Z,5.17
2022-08-23T03:40:24.194Z,5.00
2022-08-23T03:42:52.329Z,4.80
2022-08-23T03:45:20.007Z,4.83
2022-08-23T03:47:47.145Z,5.20
2022-08-23T03:50:14.350Z,5.90
2022-08-23T03:52:41.529Z,5.17
2022-08-23T03:55:08.731Z,5.07
2022-08-23T03:57:36.186Z,5.50
2022-08-23T04:00:03.417Z,5.37
2022-08-23T04:02:30.658Z,5.40
2022-08-23T04:04:58.014Z,5.33
2022-08-23T04:07:25.252Z,5.27
2022-08-23T04:09:55.184Z,4.87
2022-08-23T04:12:23.341Z,5.30
2022-08-23T04:14:50.497Z,5.60
2022-08-23T04:17:18.421Z,5.63
2022-08-23T04:19:45.551Z,5.10
2022-08-23T04:22:13.758Z,5.57
2022-08-23T04:24:42.000Z,5.67
2022-08-23T04:27:09.230Z,5.73
2022-08-23T04:29:36.371Z,5.63
2022-08-23T04:32:05.213Z,4.90
2022-08-23T04:34:33.805Z,5.40
2022-08-23T04:37:01.327Z,5.67
2022-08-23T04:39:29.582Z,5.03
2022-08-23T04:42:15.159Z,5.07
2022-08-23T04:44:42.701Z,5.97
2022-08-23T04:47:09.837Z,5.77
2022-08-23T04:49:37.023Z,4.80
2022-08-23T04:52:04.316Z,4.83
2022-08-23T04:54:31.462Z,4.40
2022-08-23T04:56:58.611Z,4.60
2022-08-23T04:59:25.774Z,4.10
2022-08-23T05:01:53.403Z,4.07
2022-08-23T05:04:20.629Z,3.77
2022-08-23T05:06:47.879Z,4.13
2022-08-23T05:09:20.001Z,3.80
2022-08-23T05:11:47.896Z,3.40
2022-08-23T05:14:15.019Z,4.10
2022-08-23T05:16:42.159Z,3.50
2022-08-23T05:19:09.498Z,3.58
2022-08-23T05:21:36.681Z,3.60
2022-08-23T05:24:03.996Z,3.30
2022-08-23T05:26:31.202Z,3.60
2022-08-23T05:28:58.368Z,3.10
2022-08-23T05:31:26.611Z,3.33
2022-08-23T05:33:54.051Z,3.40
2022-08-23T05:36:22.115Z,3.08
2022-08-23T05:38:49.887Z,2.97
2022-08-23T05:41:17.569Z,2.85
2022-08-23T05:43:44.758Z,3.30
2022-08-23T05:46:21.773Z,2.97
2022-08-23T05:48:53.857Z,3.28
2022-08-23T05:51:20.973Z,2.90
2022-08-23T05:53:48.820Z,2.80
2022-08-23T05:56:17.634Z,2.88
2022-08-23T05:58:45.405Z,2.90
2022-08-23T06:01:12.702Z,2.90
2022-08-23T06:03:39.853Z,2.92
2022-08-23T06:06:07.107Z,2.67
2022-08-23T06:08:35.120Z,2.60
2022-08-23T06:11:06.504Z,2.92
2022-08-23T06:13:34.295Z,2.70
2022-08-23T06:16:14.258Z,2.97
2022-08-23T06:18:42.608Z,2.60
2022-08-23T06:21:12.032Z,3.00
2022-08-23T06:23:39.424Z,2.70
2022-08-23T06:26:14.809Z,2.40
2022-08-23T06:28:50.840Z,2.80
2022-08-23T06:31:39.264Z,2.80
2022-08-23T06:34:06.517Z,2.78
2022-08-23T06:36:33.815Z,2.92
2022-08-23T06:39:00.955Z,3.05
2022-08-23T06:41:28.741Z,3.58
2022-08-23T06:43:55.895Z,3.85
2022-08-23T06:46:25.323Z,3.50
2022-08-23T06:48:55.527Z,3.47
2022-08-23T06:51:23.165Z,3.42
2022-08-23T06:53:50.737Z,3.40
2022-08-23T06:56:18.078Z,3.38
2022-08-23T06:58:45.213Z,3.50
2022-08-23T07:01:42.072Z,3.83
2022-08-23T07:04:06.339Z,4.00
2022-08-23T07:06:34.374Z,3.88
2022-08-23T07:09:02.088Z,4.20
2022-08-23T07:11:32.975Z,3.72
2022-08-23T07:14:04.863Z,3.92
2022-08-23T07:16:39.661Z,3.20
2022-08-23T07:19:07.457Z,3.50
2022-08-23T07:21:34.621Z,3.30
2022-08-23T07:24:01.886Z,3.33
2022-08-23T07:26:29.094Z,3.40
2022-08-23T07:28:57.496Z,3.47
2022-08-23T07:31:27.266Z,3.28
2022-08-23T07:33:55.793Z,3.40
2022-08-23T07:36:27.913Z,3.40
2022-08-23T07:38:55.713Z,3.83
2022-08-23T07:41:28.858Z,4.30
2022-08-23T07:43:58.119Z,3.50
2022-08-23T07:46:26.798Z,4.15
2022-08-23T07:48:55.125Z,4.07
2022-08-23T07:51:22.873Z,4.22
2022-08-23T07:53:50.074Z,4.47
2022-08-23T07:56:19.361Z,4.00
2022-08-23T07:58:46.482Z,4.30
2022-08-23T08:01:16.381Z,3.95
2022-08-23T08:03:44.688Z,4.07
2022-08-23T08:06:13.143Z,4.03
2022-08-23T08:08:41.414Z,3.75
2022-08-23T08:11:10.919Z,2.92
2022-08-23T08:13:39.174Z,3.08
2022-08-23T08:16:06.541Z,3.15
2022-08-23T08:18:33.701Z,3.20
2022-08-23T08:21:01.294Z,2.92
2022-08-23T08:23:31.509Z,2.65
2022-08-23T08:26:06.034Z,2.65
2022-08-23T08:28:33.691Z,2.50
2022-08-23T08:31:00.883Z,3.00
2022-08-23T08:33:31.000Z,2.92
2022-08-23T08:36:00.446Z,2.85
2022-08-23T08:38:30.860Z,2.75
2022-08-23T08:41:16.687Z,2.85
2022-08-23T08:43:53.649Z,2.50
2022-08-23T08:46:36.077Z,2.70
2022-08-23T08:49:05.621Z,2.50
2022-08-23T08:51:43.986Z,2.30
2022-08-23T08:54:13.742Z,2.28
2022-08-23T08:56:41.823Z,2.30
2022-08-23T08:59:12.261Z,2.53
2022-08-23T09:01:39.908Z,2.20
2022-08-23T09:04:07.871Z,2.33
2022-08-23T09:06:41.954Z,2.30
2022-08-23T09:09:15.380Z,2.70
2022-08-23T09:12:01.867Z,2.33
2022-08-23T09:14:37.811Z,2.30
2022-08-23T09:17:23.645Z,2.40
2022-08-23T09:19:51.981Z,2.53
2022-08-23T09:22:26.344Z,2.15
2022-08-23T09:24:53.473Z,2.30
2022-08-23T09:27:20.674Z,2.20
2022-08-23T09:29:56.223Z,2.10
2022-08-23T09:32:26.439Z,2.40
2022-08-23T09:35:06.260Z,2.47
2022-08-23T09:37:46.010Z,1.95
2022-08-23T09:40:16.459Z,2.20
2022-08-23T09:42:44.033Z,2.03
2022-08-23T09:45:33.172Z,2.50
2022-08-23T09:48:03.031Z,2.30
2022-08-23T09:50:38.853Z,2.30
2022-08-23T09:53:10.668Z,2.20
2022-08-23T09:55:39.638Z,2.10
2022-08-23T09:58:17.347Z,1.95
2022-08-23T10:00:44.525Z,2.25
2022-08-23T10:03:28.922Z,2.30
2022-08-23T10:05:57.212Z,2.08
2022-08-23T10:08:28.761Z,2.13
2022-08-23T10:10:59.059Z,2.10
2022-08-23T10:13:27.024Z,2.20
2022-08-23T10:16:04.352Z,2.20
2022-08-23T10:18:36.013Z,2.30
2022-08-23T10:21:20.248Z,2.03
2022-08-23T10:23:48.328Z,2.40
2022-08-23T10:26:30.180Z,1.95
2022-08-23T10:29:28.019Z,2.17
2022-08-23T10:31:58.987Z,2.22
2022-08-23T10:34:32.477Z,1.95
2022-08-23T10:37:15.707Z,2.22
2022-08-23T10:39:49.148Z,2.17
2022-08-23T10:42:19.970Z,2.00
2022-08-23T10:45:03.958Z,2.20
2022-08-23T10:47:38.962Z,1.88
2022-08-23T10:50:08.075Z,2.13
2022-08-23T10:52:40.529Z,2.05
2022-08-23T10:55:17.623Z,2.08
2022-08-23T10:57:46.068Z,2.20
2022-08-23T11:00:18.173Z,1.80
2022-08-23T11:02:49.633Z,1.90
2022-08-23T11:05:22.452Z,1.70
2022-08-23T11:08:01.199Z,2.05
2022-08-23T11:10:28.455Z,1.80
2022-08-23T11:12:59.966Z,1.95
2022-08-23T11:15:31.309Z,1.90
2022-08-23T11:18:00.571Z,1.98
2022-08-23T11:20:46.376Z,2.22
2022-08-23T11:23:14.567Z,1.80
2022-08-23T11:25:42.526Z,2.15
2022-08-23T11:28:25.322Z,2.05
2022-08-23T11:30:57.711Z,1.80
2022-08-23T11:33:24.845Z,2.00
2022-08-23T11:36:16.586Z,1.80
2022-08-23T11:38:50.169Z,1.83
2022-08-23T11:41:20.037Z,1.80
2022-08-23T11:43:48.334Z,1.83
2022-08-23T11:46:21.709Z,2.00
2022-08-23T11:48:59.354Z,1.90
2022-08-23T11:51:29.461Z,1.75
2022-08-23T11:53:56.602Z,1.70
2022-08-23T11:56:33.483Z,1.50
2022-08-23T11:59:08.529Z,1.88
2022-08-23T12:01:38.311Z,1.90
2022-08-23T12:04:10.663Z,1.73
2022-08-23T12:06:41.000Z,2.10
2022-08-23T12:09:23.336Z,1.55
2022-08-23T12:11:56.431Z,1.70
2022-08-23T12:14:36.465Z,1.80
2022-08-23T12:17:26.508Z,1.90
2022-08-23T12:20:00.518Z,1.80
2022-08-23T12:22:30.175Z,1.92
2022-08-23T12:24:59.162Z,1.83
2022-08-23T12:27:26.507Z,1.83
2022-08-23T12:29:58.847Z,1.80
2022-08-23T12:32:44.889Z,1.85
2022-08-23T12:35:24.365Z,1.80
2022-08-23T12:37:51.650Z,1.70
2022-08-23T12:40:47.866Z,1.83
2022-08-23T12:43:19.819Z,1.77
2022-08-23T12:45:53.256Z,1.90
2022-08-23T12:48:22.957Z,2.35
2022-08-23T12:54:23.880Z,1.90
2022-08-23T12:56:53.004Z,1.77
2022-08-23T12:59:40.166Z,2.05
2022-08-23T13:02:11.612Z,1.95
2022-08-23T13:04:40.179Z,1.73
2022-08-23T13:07:09.108Z,1.75
2022-08-23T13:09:38.204Z,1.55
2022-08-23T13:12:06.405Z,1.88
2022-08-23T13:14:38.371Z,1.70
2022-08-23T13:17:24.058Z,1.80
2022-08-23T13:19:54.303Z,1.80
2022-08-23T13:22:26.253Z,1.95
2022-08-23T13:25:27.489Z,1.67
2022-08-23T13:27:54.384Z,1.60
2022-08-23T13:30:26.562Z,1.63
2022-08-23T13:33:13.682Z,1.80
2022-08-23T13:35:46.935Z,1.60
2022-08-23T13:38:21.022Z,1.80
2022-08-23T13:40:51.642Z,1.55
2022-08-23T13:43:31.070Z,1.95
2022-08-23T13:45:59.459Z,1.80
2022-08-23T13:48:30.299Z,1.88
2022-08-23T13:51:17.373Z,2.05
2022-08-23T13:53:44.639Z,1.80
2022-08-23T13:56:11.899Z,2.17
2022-08-23T13:58:39.061Z,1.88
2022-08-23T14:01:13.300Z,1.90
2022-08-23T14:03:40.534Z,1.92
2022-08-23T14:06:07.764Z,1.85
2022-08-23T14:08:34.932Z,1.90
2022-08-23T14:11:02.125Z,1.90
2022-08-23T14:13:30.193Z,1.80
2022-08-23T14:21:34.928Z,1.90
2022-08-23T14:24:02.062Z,1.80
2022-08-23T14:26:29.258Z,1.88
2022-08-23T14:28:56.437Z,1.75
2022-08-23T14:31:23.994Z,1.75
2022-08-23T14:33:51.272Z,1.90
2022-08-23T14:36:18.729Z,2.00
2022-08-23T14:38:50.084Z,1.65
2022-08-23T14:41:22.832Z,2.33
2022-08-23T14:43:50.502Z,1.90
2022-08-23T14:46:17.723Z,1.70
2022-08-23T14:48:44.921Z,1.98
2022-08-23T14:51:24.057Z,1.80
2022-08-23T14:53:51.475Z,1.67
2022-08-23T14:56:21.469Z,1.80
2022-08-23T14:58:49.833Z,1.92
2022-08-23T15:01:17.570Z,1.90
2022-08-23T15:03:44.916Z,1.75
2022-08-23T15:06:13.028Z,1.70
2022-08-23T15:08:40.554Z,2.10
2022-08-23T15:13:59.890Z,2.00
2022-08-23T15:16:27.622Z,1.92
2022-08-23T15:18:55.550Z,1.85
2022-08-23T15:21:23.089Z,1.58
2022-08-23T15:23:50.343Z,2.00
2022-08-23T15:26:20.318Z,1.60
2022-08-23T15:28:47.454Z,1.83
2022-08-23T15:31:15.781Z,2.10
2022-08-23T15:33:42.933Z,1.80
2022-08-23T15:36:11.810Z,2.05
2022-08-23T15:38:39.080Z,1.95
2022-08-23T15:41:06.502Z,1.90
2022-08-23T15:43:35.102Z,1.77
2022-08-23T15:46:10.323Z,2.00
2022-08-23T15:48:42.724Z,2.05
2022-08-23T15:51:10.425Z,1.88
2022-08-23T15:53:39.408Z,1.98
2022-08-23T15:56:15.801Z,1.80
2022-08-23T15:58:43.198Z,1.95
2022-08-23T16:01:10.509Z,1.67
2022-08-23T16:03:38.475Z,2.00
2022-08-23T16:06:06.479Z,2.13
2022-08-23T16:08:36.237Z,2.00
2022-08-23T16:11:07.638Z,1.95
2022-08-23T16:13:34.757Z,1.92
2022-08-23T16:16:02.065Z,1.95
2022-08-23T16:18:29.268Z,1.90
2022-08-23T16:20:56.389Z,2.15
2022-08-23T16:23:23.637Z,2.28
2022-08-23T16:25:50.888Z,2.35
2022-08-23T16:28:18.233Z,2.08
2022-08-23T16:30:45.366Z,2.03
2022-08-23T16:33:12.644Z,2.15
2022-08-23T16:35:39.810Z,2.47
2022-08-23T16:38:06.995Z,1.95
2022-08-23T16:40:34.132Z,2.65
2022-08-23T16:43:01.616Z,5.68
2022-08-23T16:45:28.900Z,2.20
2022-08-23T16:47:56.130Z,2.55
2022-08-23T16:50:23.457Z,2.03
2022-08-23T16:52:50.560Z,1.90
2022-08-23T16:55:17.947Z,2.03
2022-08-23T16:57:45.099Z,2.40
2022-08-23T17:00:15.647Z,2.10
2022-08-23T17:02:44.021Z,2.00
2022-08-23T17:05:12.489Z,2.13
2022-08-23T17:07:39.664Z,1.95
2022-08-23T17:10:08.073Z,2.20
2022-08-23T17:12:36.700Z,2.63
2022-08-23T17:15:05.130Z,2.13
2022-08-23T17:17:32.549Z,2.10
2022-08-23T17:19:59.870Z,2.30
2022-08-23T17:22:27.003Z,2.00
2022-08-23T17:24:54.119Z,1.90
2022-08-23T17:27:21.717Z,1.90
2022-08-23T17:29:48.932Z,2.30
2022-08-23T17:32:20.194Z,2.58
2022-08-23T17:34:47.387Z,2.05
2022-08-23T17:37:16.066Z,1.90
2022-08-23T17:39:43.380Z,2.15
2022-08-23T17:42:11.103Z,2.10
2022-08-23T17:44:38.395Z,1.95
2022-08-23T17:47:07.656Z,2.20
2022-08-23T17:49:35.084Z,2.25
2022-08-23T17:52:03.443Z,2.25
2022-08-23T17:54:30.609Z,2.13
2022-08-23T17:56:57.746Z,1.83
2022-08-23T17:59:24.901Z,2.15
2022-08-23T18:01:52.139Z,2.03
2022-08-23T18:04:19.485Z,2.45
2022-08-23T18:06:46.743Z,2.88
2022-08-23T18:09:14.202Z,3.08
2022-08-23T18:11:41.969Z,2.47
2022-08-23T18:14:09.207Z,2.70
2022-08-23T18:16:36.684Z,2.83
2022-08-23T18:19:04.597Z,2.45
2022-08-23T18:21:31.841Z,3.15
2022-08-23T18:23:59.410Z,2.67
2022-08-23T18:26:45.358Z,2.78
2022-08-23T18:29:14.542Z,2.53
2022-08-23T18:31:43.061Z,2.70
2022-08-23T18:34:10.910Z,2.35
2022-08-23T18:36:38.241Z,2.40
2022-08-23T18:39:06.324Z,2.20
2022-08-23T18:41:33.529Z,2.42
2022-08-23T18:44:05.439Z,2.50
2022-08-23T18:46:33.924Z,2.20
2022-08-23T18:49:01.166Z,2.38
2022-08-23T18:51:28.394Z,2.28
2022-08-23T18:53:55.649Z,2.25
2022-08-23T18:56:22.803Z,2.47
2022-08-23T18:58:49.931Z,2.55
2022-08-23T19:01:21.038Z,2.45
2022-08-23T19:03:48.270Z,2.60
2022-08-23T19:06:15.413Z,2.47
2022-08-23T19:08:42.593Z,2.80
2022-08-23T19:11:10.013Z,2.30
2022-08-23T19:13:37.254Z,2.00
2022-08-23T19:16:06.622Z,2.20
2022-08-23T19:18:34.132Z,2.13
2022-08-23T19:21:03.652Z,2.33
2022-08-23T19:23:30.785Z,2.40
2022-08-23T19:25:57.895Z,2.03
2022-08-23T19:28:25.134Z,2.20
2022-08-23T19:30:52.263Z,2.10
2022-08-23T19:33:19.413Z,2.17
2022-08-23T19:35:46.743Z,2.13
2022-08-23T19:38:14.247Z,2.13
2022-08-23T19:40:42.593Z,1.90
2022-08-23T19:43:10.413Z,2.03
2022-08-23T19:45:38.910Z,2.00
2022-08-23T19:48:06.716Z,2.15
2022-08-23T19:50:34.171Z,2.75
2022-08-23T19:53:01.567Z,2.50
2022-08-23T19:55:31.976Z,2.40
2022-08-23T19:57:59.320Z,2.45
2022-08-23T20:00:27.556Z,2.53
2022-08-23T20:02:55.460Z,2.25
2022-08-23T20:05:22.762Z,2.28
2022-08-23T20:07:49.890Z,2.20
2022-08-23T20:10:16.999Z,2.33
2022-08-23T20:12:44.115Z,2.40
2022-08-23T20:15:12.078Z,2.10
2022-08-23T20:17:39.406Z,2.28
2022-08-23T20:20:07.232Z,2.05
2022-08-23T20:22:52.957Z,2.17
2022-08-23T20:25:20.086Z,2.20
2022-08-23T20:27:47.237Z,2.25
2022-08-23T20:30:14.794Z,2.05
2022-08-23T20:32:42.669Z,2.20
2022-08-23T20:35:11.175Z,1.90
2022-08-23T20:37:39.020Z,1.98
2022-08-23T20:40:07.773Z,1.92
2022-08-23T20:42:34.954Z,2.00
2022-08-23T20:45:02.261Z,2.15
2022-08-23T20:47:29.446Z,1.88
2022-08-23T20:49:56.561Z,2.10
2022-08-23T20:52:23.687Z,2.00
2022-08-23T20:54:50.870Z,2.20
2022-08-23T20:57:17.985Z,2.00
2022-08-23T20:59:45.328Z,1.90
2022-08-23T21:02:12.623Z,1.80
2022-08-23T21:04:40.329Z,1.90
2022-08-23T21:07:08.334Z,2.55
2022-08-23T21:09:36.023Z,2.05
2022-08-23T21:12:03.194Z,1.60
2022-08-23T21:14:30.289Z,1.77
2022-08-23T21:16:57.453Z,1.80
2022-08-23T21:19:24.579Z,1.73
2022-08-23T21:21:51.718Z,2.05
2022-08-23T21:24:18.846Z,1.52
2022-08-23T21:26:45.965Z,1.60
2022-08-23T21:29:13.105Z,1.65
2022-08-23T21:31:40.541Z,1.80
2022-08-23T21:34:08.359Z,1.70
2022-08-23T21:36:35.753Z,1.70
2022-08-23T21:39:02.872Z,2.00
2022-08-23T21:41:33.009Z,2.00
2022-08-23T21:44:00.546Z,2.13
2022-08-23T21:46:27.863Z,1.95
2022-08-23T21:48:55.560Z,2.13
2022-08-23T21:51:23.158Z,2.00
2022-08-23T21:53:50.667Z,1.77
2022-08-23T21:56:19.142Z,1.85
2022-08-23T21:58:46.248Z,2.10
2022-08-23T22:01:18.714Z,2.03
2022-08-23T22:03:46.055Z,2.28
2022-08-23T22:06:14.628Z,1.92
2022-08-23T22:08:42.353Z,1.95
2022-08-23T22:11:10.118Z,2.42
2022-08-23T22:13:37.486Z,1.95
2022-08-23T22:16:04.954Z,2.20
2022-08-23T22:18:32.448Z,2.10
2022-08-23T22:21:00.147Z,2.15
2022-08-23T22:23:28.016Z,2.00
2022-08-23T22:25:57.356Z,1.90
2022-08-23T22:28:24.486Z,1.80
2022-08-23T22:30:52.945Z,1.75
2022-08-23T22:33:21.371Z,1.93
2022-08-23T22:35:49.026Z,2.00
2022-08-23T22:38:17.324Z,2.10
2022-08-23T22:40:48.289Z,1.90
2022-08-23T22:43:15.794Z,1.87
2022-08-23T22:45:53.477Z,2.03
2022-08-23T22:48:21.473Z,2.00
2022-08-23T22:50:48.787Z,1.90
2022-08-23T22:53:16.510Z,1.80
2022-08-23T22:55:43.716Z,1.90
2022-08-23T22:58:10.867Z,1.67
2022-08-23T23:00:42.318Z,1.80
2022-08-23T23:03:10.572Z,1.80
2022-08-23T23:05:37.775Z,2.10
2022-08-23T23:08:23.780Z,1.90
2022-08-23T23:10:50.918Z,2.00
2022-08-23T23:13:18.049Z,1.80
2022-08-23T23:15:45.208Z,1.83
2022-08-23T23:18:12.343Z,1.93
2022-08-23T23:20:40.792Z,2.10
2022-08-23T23:23:09.164Z,2.00
2022-08-23T23:25:36.822Z,1.87
2022-08-23T23:28:05.249Z,2.20
2022-08-23T23:30:33.933Z,1.93
2022-08-23T23:33:01.189Z,1.93
2022-08-23T23:35:28.821Z,1.90
2022-08-23T23:37:56.383Z,2.10
2022-08-23T23:40:24.413Z,2.20
2022-08-23T23:42:51.640Z,2.17
2022-08-23T23:45:19.044Z,1.97
2022-08-23T23:47:46.286Z,2.30
2022-08-23T23:50:13.961Z,2.20
2022-08-23T23:52:41.548Z,1.80
2022-08-23T23:55:10.208Z,2.30
2022-08-23T23:57:37.350Z,1.90
